Time;durP1;ratioP1;P1;durP2;ratioP2;P2;SDS_P1;SDS_P2;PMS_P1;PMS_P2;Temp;Humidity;BMP_temperature;BMP_pressure;BME280_temperature;BME280_humidity;BME280_pressure;Samples;Min_cycle;Max_cycle;Signal;HPM_P1;HPM_P2
2022/10/18 00:00:08;;;;;;;86.55;81.03;;;;;;;14.95;62.92;102915.88;5016785;28;102177;-52
2022/10/18 00:02:35;;;;;;;83.68;78.18;;;;;;;14.96;62.97;102911.22;5011207;28;104122;-52
2022/10/18 00:05:02;;;;;;;89.20;83.40;;;;;;;14.97;63.05;102905.53;5002761;28;102306;-52
2022/10/18 00:07:28;;;;;;;89.47;83.65;;;;;;;14.95;62.87;102907.66;5010745;28;102289;-52
2022/10/18 00:09:55;;;;;;;87.78;82.38;;;;;;;14.96;62.82;102903.84;5016343;28;102122;-52
2022/10/18 00:12:26;;;;;;;89.05;83.25;;;;;;;14.95;63.00;102902.19;5014532;28;104096;-52
2022/10/18 00:14:52;;;;;;;101.28;95.10;;;;;;;14.95;62.86;102895.88;5003947;28;103340;-52
2022/10/18 00:17:26;;;;;;;102.82;96.40;;;;;;;14.97;62.98;102900.03;4999957;28;102478;-52
2022/10/18 00:19:53;;;;;;;105.57;99.35;;;;;;;14.96;63.30;102898.34;5006516;28;102083;-52
2022/10/18 00:22:20;;;;;;;102.55;96.35;;;;;;;14.96;62.84;102895.63;5014083;28;103833;-52
2022/10/18 00:24:47;;;;;;;92.40;86.70;;;;;;;14.96;62.87;102895.63;5014644;28;102556;-52
2022/10/18 00:27:13;;;;;;;95.55;89.63;;;;;;;14.98;63.31;102895.38;5014599;28;102457;-52
2022/10/18 00:29:42;;;;;;;96.07;90.00;;;;;;;14.97;63.22;102885.50;5010100;28;102597;-52
2022/10/18 00:32:10;;;;;;;99.03;93.18;;;;;;;14.96;63.37;102892.88;5013760;28;103914;-52
2022/10/18 00:34:39;;;;;;;105.82;99.65;;;;;;;14.97;63.16;102888.25;5012936;28;102330;-52
2022/10/18 00:37:05;;;;;;;93.20;87.57;;;;;;;14.97;63.01;102888.25;4994998;28;102347;-52
2022/10/18 00:39:32;;;;;;;106.03;99.88;;;;;;;14.95;63.18;102891.22;4996005;28;102495;-52
2022/10/18 00:41:59;;;;;;;100.95;94.93;;;;;;;14.97;63.08;102893.72;4994018;28;103975;-52
2022/10/18 00:45:11;;;;;;;96.88;91.13;;;;;;;14.97;63.20;102883.59;5010241;28;102727;-53
2022/10/18 00:47:38;;;;;;;145.77;137.85;;;;;;;14.96;63.07;102884.66;5012797;28;102489;-52
2022/10/18 00:50:07;;;;;;;110.90;104.43;;;;;;;14.97;63.12;102877.28;5016105;28;102106;-52
2022/10/18 00:52:38;;;;;;;105.10;98.80;;;;;;;14.96;63.20;102870.94;5014071;28;103930;-52
2022/10/18 00:55:05;;;;;;;102.25;96.38;;;;;;;14.97;63.38;102867.13;5013560;28;102071;-52
2022/10/18 00:57:32;;;;;;;96.80;91.10;;;;;;;14.97;63.27;102861.66;5013330;28;102327;-52
2022/10/18 00:59:59;;;;;;;92.50;86.95;;;;;;;14.95;63.37;102852.00;5015790;28;102120;-52
2022/10/18 01:02:27;;;;;;;101.25;95.13;;;;;;;14.96;63.38;102857.22;5009260;28;103889;-52
2022/10/18 01:04:53;;;;;;;105.47;99.33;;;;;;;14.96;63.53;102868.19;4998718;28;101978;-52
2022/10/18 01:07:34;;;;;;;99.55;93.50;;;;;;;14.96;62.98;102859.13;5014495;28;102063;-52
2022/10/18 01:10:09;;;;;;;124.70;117.77;;;;;;;14.96;63.20;102859.97;5015370;28;102083;-52
2022/10/18 01:12:45;;;;;;;123.38;116.47;;;;;;;14.96;63.22;102870.94;5016721;28;104273;-52
2022/10/18 01:15:22;;;;;;;122.03;115.28;;;;;;;14.96;63.27;102862.72;5005441;28;102593;-52
2022/10/18 01:17:58;;;;;;;115.35;108.88;;;;;;;14.97;63.39;102860.81;4997209;28;102264;-52
2022/10/18 01:21:08;;;;;;;120.20;113.40;;;;;;;14.95;63.15;102858.31;4998804;28;102071;-52
2022/10/18 01:23:56;;;;;;;161.20;152.32;;;;;;;14.95;63.08;102852.00;4997376;28;103900;-52
2022/10/18 01:26:40;;;;;;;145.00;136.90;;;;;;;14.96;63.23;102865.44;4997838;28;102387;-52
2022/10/18 01:29:19;;;;;;;130.85;123.80;;;;;;;14.96;63.50;102861.88;5017298;28;102338;-52
2022/10/18 01:31:52;;;;;;;127.28;120.28;;;;;;;14.96;63.05;102859.97;5012598;28;102160;-52
2022/10/18 01:34:19;;;;;;;121.97;115.25;;;;;;;14.95;63.32;102858.31;5004455;28;104047;-52
2022/10/18 01:36:50;;;;;;;103.65;97.65;;;;;;;14.96;63.04;102864.63;5016491;28;102595;-52
2022/10/18 01:39:22;;;;;;;111.18;104.93;;;;;;;14.96;63.41;102868.19;5007835;28;102295;-52
2022/10/18 01:41:50;;;;;;;111.72;105.25;;;;;;;14.96;63.22;102857.22;5009016;28;102248;-52
2022/10/18 01:44:22;;;;;;;113.18;106.78;;;;;;;14.95;63.57;102858.31;5004374;28;103905;-52
2022/10/18 01:46:52;;;;;;;111.88;105.40;;;;;;;14.96;63.05;102859.97;4996277;28;102371;-52
2022/10/18 01:49:23;;;;;;;114.13;107.53;;;;;;;14.96;63.57;102854.47;4997323;28;102736;-52
2022/10/18 01:51:49;;;;;;;101.22;95.40;;;;;;;14.96;63.21;102857.22;4997902;28;102865;-52
2022/10/18 01:54:20;;;;;;;107.38;101.38;;;;;;;14.95;63.36;102857.50;4986232;28;103872;-52
2022/10/18 01:56:54;;;;;;;106.30;100.30;;;;;;;14.95;63.30;102852.00;4997518;28;102391;-52
2022/10/18 01:59:36;;;;;;;107.68;101.50;;;;;;;14.95;63.57;102857.50;4997143;28;102174;-53
2022/10/18 02:02:14;;;;;;;120.05;113.50;;;;;;;14.95;63.44;102852.00;4998217;28;102782;-52
2022/10/18 02:04:50;;;;;;;122.63;115.82;;;;;;;14.95;63.44;102854.75;4996118;28;108066;-53
2022/10/18 02:07:28;;;;;;;116.03;109.53;;;;;;;14.95;63.57;102847.34;4988718;28;102398;-52
2022/10/18 02:10:03;;;;;;;123.60;117.03;;;;;;;14.95;63.67;102843.78;4976559;28;102003;-52
2022/10/18 02:12:32;;;;;;;110.80;104.65;;;;;;;14.94;63.53;102834.72;4977886;28;102316;-52
2022/10/18 02:15:05;;;;;;;109.93;103.72;;;;;;;14.95;63.71;102847.34;4987414;28;103974;-52
2022/10/18 02:17:33;;;;;;;112.82;106.63;;;;;;;14.97;63.43;102838.88;4985251;28;102421;-52
2022/10/18 02:20:07;;;;;;;107.32;101.32;;;;;;;14.96;63.45;102848.19;4976418;28;102093;-52
2022/10/18 02:22:36;;;;;;;103.55;97.38;;;;;;;14.95;63.28;102850.09;4976244;28;102319;-52
2022/10/18 02:25:09;;;;;;;100.75;95.10;;;;;;;14.95;63.82;102852.84;4990422;28;104157;-52
2022/10/18 02:27:36;;;;;;;101.40;95.63;;;;;;;14.96;63.51;102851.75;4996411;28;102290;-52
2022/10/18 02:30:04;;;;;;;104.03;98.20;;;;;;;14.95;63.44;102861.06;4984610;28;102238;-52
2022/10/18 02:32:38;;;;;;;106.85;100.82;;;;;;;14.95;63.35;102863.78;4978073;28;102371;-52
2022/10/18 02:35:10;;;;;;;107.22;101.32;;;;;;;14.96;63.80;102862.72;4994921;28;104001;-53
2022/10/18 02:37:38;;;;;;;114.50;108.20;;;;;;;14.96;63.29;102870.94;4997100;28;102506;-52
2022/10/18 02:40:08;;;;;;;118.22;111.82;;;;;;;14.94;63.69;102862.16;4996594;28;102581;-52
2022/10/18 02:42:34;;;;;;;;;;;;;;;14.94;63.42;102851.19;4997786;28;102157;-52
2022/10/18 02:45:01;;;;;;;206.80;196.48;;;;;;;14.94;63.37;102845.69;4986101;28;104078;-52
2022/10/18 02:47:28;;;;;;;152.13;144.25;;;;;;;14.95;63.15;102852.84;4984663;28;101981;-52
2022/10/18 02:49:56;;;;;;;131.95;125.00;;;;;;;14.93;63.70;102838.56;4995263;28;102422;-52
2022/10/18 02:52:23;;;;;;;112.07;105.97;;;;;;;14.95;63.69;102836.38;4997530;28;102328;-52
2022/10/18 02:54:49;;;;;;;109.20;103.18;;;;;;;14.95;63.55;102841.88;4995446;28;104018;-52
2022/10/18 02:57:16;;;;;;;110.72;104.68;;;;;;;14.94;63.34;102842.94;4995533;28;102003;-52
2022/10/18 02:59:43;;;;;;;112.20;106.00;;;;;;;14.93;63.61;102844.03;4995373;28;102368;-52
2022/10/18 03:02:10;;;;;;;103.78;97.72;;;;;;;14.94;63.65;102840.22;4994812;28;102349;-53
2022/10/18 03:04:38;;;;;;;106.63;100.47;;;;;;;14.94;63.60;102842.94;4996089;28;104246;-52
2022/10/18 03:07:06;;;;;;;102.57;96.85;;;;;;;14.95;63.42;102841.03;4995832;28;102183;-52
2022/10/18 03:09:33;;;;;;;110.38;104.15;;;;;;;14.94;63.70;102842.94;4996144;28;102299;-52
2022/10/18 03:11:59;;;;;;;99.07;93.53;;;;;;;14.94;63.49;102848.44;4996079;28;102403;-52
2022/10/18 03:14:26;;;;;;;92.63;87.47;;;;;;;14.94;63.60;102845.69;4995094;28;104225;-52
2022/10/18 03:16:53;;;;;;;94.28;88.93;;;;;;;14.93;63.82;102844.03;4977496;28;102482;-52
2022/10/18 03:19:24;;;;;;;99.28;93.75;;;;;;;14.92;63.76;102845.09;4994090;28;102031;-52
2022/10/18 03:21:52;;;;;;;104.78;99.00;;;;;;;14.95;63.64;102849.25;4995932;28;102254;-52
2022/10/18 03:24:19;;;;;;;103.63;97.90;;;;;;;14.93;63.54;102846.78;4995709;28;104143;-52
2022/10/18 03:26:46;;;;;;;101.72;96.13;;;;;;;14.94;63.66;102847.59;4995539;28;102018;-52
2022/10/18 03:29:12;;;;;;;94.30;88.85;;;;;;;14.93;63.51;102838.56;4981118;28;102564;-52
2022/10/18 03:31:39;;;;;;;93.78;88.38;;;;;;;14.92;63.41;102842.34;4986355;28;102260;-52
2022/10/18 03:34:05;;;;;;;95.32;89.90;;;;;;;14.93;63.46;102838.56;4993078;28;104098;-52
2022/10/18 03:36:33;;;;;;;93.65;88.45;;;;;;;14.95;63.86;102841.88;4996277;28;102289;-53
2022/10/18 03:39:00;;;;;;;97.90;92.15;;;;;;;14.94;63.73;102831.16;4995678;28;102307;-52
2022/10/18 03:41:28;;;;;;;101.38;95.70;;;;;;;14.94;63.67;102839.38;5005160;28;102183;-52
2022/10/18 03:43:54;;;;;;;100.10;94.40;;;;;;;14.93;63.79;102833.06;4998637;28;103772;-52
2022/10/18 03:46:21;;;;;;;93.95;88.70;;;;;;;14.93;63.71;102827.59;4995658;28;102416;-53
2022/10/18 03:48:47;;;;;;;91.32;86.03;;;;;;;14.93;63.56;102827.59;4995946;28;102072;-52
2022/10/18 03:51:14;;;;;;;97.80;92.32;;;;;;;14.92;63.75;102823.16;5007484;28;102401;-52
2022/10/18 03:54:00;;;;;;;121.95;115.38;;;;;;;14.95;63.95;102824.59;5006563;28;104821;-52
2022/10/18 03:56:28;;;;;;;108.30;102.32;;;;;;;14.93;63.57;102822.09;4995998;28;102058;-52
2022/10/18 03:58:55;;;;;;;104.10;98.15;;;;;;;14.93;63.91;102816.63;4994586;28;102931;-52
2022/10/18 04:01:22;;;;;;;101.28;95.78;;;;;;;14.94;63.58;102818.28;5008047;28;102123;-52
2022/10/18 04:03:48;;;;;;;101.93;96.32;;;;;;;14.93;63.53;102815.75;4995186;28;105156;-52
2022/10/18 04:06:15;;;;;;;97.45;92.03;;;;;;;14.95;63.55;102827.31;4995397;28;102252;-52
2022/10/18 04:08:43;;;;;;;104.53;98.72;;;;;;;14.93;63.89;102822.09;4995201;28;102161;-52
2022/10/18 04:11:10;;;;;;;101.53;95.80;;;;;;;14.93;63.67;102819.38;4984286;28;102154;-52
2022/10/18 04:13:38;;;;;;;105.57;99.72;;;;;;;14.93;63.84;102818.50;4974724;28;104077;-52
2022/10/18 04:16:06;;;;;;;112.05;105.93;;;;;;;14.93;63.63;102818.50;4991042;28;102419;-52
2022/10/18 04:18:34;;;;;;;115.22;108.80;;;;;;;14.94;63.64;102825.69;4994587;28;102310;-52
2022/10/18 04:21:01;;;;;;;108.28;102.40;;;;;;;14.92;63.61;102825.09;5006529;28;102601;-52
2022/10/18 04:23:27;;;;;;;104.03;98.25;;;;;;;14.91;63.88;102821.50;5014810;28;103897;-52
2022/10/18 04:25:54;;;;;;;106.32;100.43;;;;;;;14.93;63.79;102821.25;5015305;28;101851;-52
2022/10/18 04:28:20;;;;;;;97.80;92.30;;;;;;;14.92;63.63;102831.38;4997420;28;102338;-52
2022/10/18 04:30:52;;;;;;;106.03;100.15;;;;;;;14.93;63.58;102822.09;5004088;28;102895;-52
2022/10/18 04:33:19;;;;;;;109.30;103.47;;;;;;;14.92;63.75;102834.13;5014609;28;103951;-52
2022/10/18 04:35:49;;;;;;;100.40;94.88;;;;;;;14.93;63.95;102827.59;5015014;28;102160;-52
2022/10/18 04:38:16;;;;;;;108.78;102.50;;;;;;;14.92;63.82;102828.66;5008073;28;102153;-52
2022/10/18 04:40:42;;;;;;;103.43;97.88;;;;;;;14.93;63.85;102821.25;5015709;28;102641;-53
2022/10/18 04:43:09;;;;;;;106.32;100.30;;;;;;;14.93;63.88;102827.59;5014147;28;103889;-52
2022/10/18 04:45:35;;;;;;;105.30;99.28;;;;;;;14.92;63.93;102831.38;5014663;28;102351;-53
2022/10/18 04:48:04;;;;;;;91.47;86.13;;;;;;;14.92;64.12;102831.38;5005947;28;102329;-52
2022/10/18 04:50:30;;;;;;;99.40;93.97;;;;;;;14.93;64.04;102832.22;5016427;28;102283;-52
2022/10/18 04:52:57;;;;;;;101.20;95.28;;;;;;;14.91;63.97;102829.75;5018068;28;104053;-52
2022/10/18 04:55:23;;;;;;;99.25;93.65;;;;;;;14.92;64.00;102842.34;5015227;28;102853;-52
2022/10/18 04:57:51;;;;;;;95.97;90.75;;;;;;;14.96;64.06;102843.50;5017064;28;102054;-52
2022/10/18 05:00:19;;;;;;;97.63;92.03;;;;;;;14.96;63.81;102842.69;4999478;28;102369;-52
2022/10/18 05:02:47;;;;;;;91.97;86.82;;;;;;;14.96;63.92;102838.03;5017011;28;104239;-52
2022/10/18 05:05:15;;;;;;;97.25;91.70;;;;;;;14.99;63.75;102842.19;5000938;28;102292;-53
2022/10/18 05:07:41;;;;;;;100.55;94.85;;;;;;;15.00;63.73;102835.63;4997971;28;102438;-53
2022/10/18 05:10:08;;;;;;;100.88;95.18;;;;;;;15.01;63.77;102840.88;4999261;28;102606;-52
2022/10/18 05:12:36;;;;;;;113.00;106.90;;;;;;;15.00;63.61;102841.97;5015236;28;104046;-52
2022/10/18 05:15:03;;;;;;;99.60;94.13;;;;;;;15.01;63.76;102840.88;5016187;28;102349;-52
2022/10/18 05:17:31;;;;;;;108.88;102.80;;;;;;;15.02;63.68;102842.53;4996812;28;102176;-52
2022/10/18 05:19:58;;;;;;;96.95;91.70;;;;;;;15.02;63.50;102837.03;5009380;28;102394;-52
2022/10/18 05:22:26;;;;;;;99.68;94.15;;;;;;;15.02;63.87;102831.56;5008630;28;104074;-53
2022/10/18 05:24:53;;;;;;;103.57;97.72;;;;;;;14.95;63.07;102836.38;5016492;28;102133;-53
2022/10/18 05:27:19;;;;;;;105.40;99.38;;;;;;;14.86;62.62;102827.75;5013028;28;102365;-52
2022/10/18 05:29:46;;;;;;;110.50;104.43;;;;;;;14.82;61.85;102825.72;5003634;28;102684;-52
2022/10/18 05:32:12;;;;;;;109.72;103.60;;;;;;;14.81;61.74;102840.53;5006815;28;104634;-52
2022/10/18 05:34:39;;;;;;;109.72;103.75;;;;;;;14.79;61.09;102838.03;5010234;28;102349;-52
2022/10/18 05:37:06;;;;;;;117.05;110.68;;;;;;;14.76;61.91;102848.69;5007461;28;104069;-53
2022/10/18 05:39:33;;;;;;;173.55;163.60;;;;;;;14.33;59.02;102841.84;5013121;28;102736;-52
2022/10/18 05:42:01;;;;;;;149.75;141.20;;;;;;;14.41;59.81;102841.44;5010475;28;104100;-52
2022/10/18 05:44:28;;;;;;;161.00;151.68;;;;;;;14.48;59.61;102842.13;5011227;28;102897;-52
2022/10/18 05:46:55;;;;;;;160.20;151.00;;;;;;;14.50;59.71;102834.53;5016987;28;102467;-52
2022/10/18 05:49:21;;;;;;;163.48;154.35;;;;;;;14.52;59.47;102832.34;5011455;28;101962;-52
2022/10/18 05:51:48;;;;;;;168.50;158.80;;;;;;;14.55;59.78;102831.03;5015965;28;104285;-52
2022/10/18 05:54:15;;;;;;;175.35;165.90;;;;;;;14.55;59.36;102837.34;5017464;28;102230;-52
2022/10/18 05:56:43;;;;;;;170.38;160.98;;;;;;;14.56;59.83;102844.47;5016188;28;102097;-56
2022/10/18 05:59:10;;;;;;;178.10;168.43;;;;;;;14.56;60.03;102828.03;5017962;28;102373;-52
2022/10/18 06:01:41;;;;;;;190.38;179.90;;;;;;;14.55;60.01;102831.84;5016684;28;103875;-52
2022/10/18 06:04:09;;;;;;;199.33;186.77;;;;;;;14.57;60.05;102834.34;5017452;28;102913;-52
2022/10/18 06:06:36;;;;;;;182.57;172.27;;;;;;;14.57;60.01;102818.75;5016580;28;102393;-52
2022/10/18 06:09:03;;;;;;;178.68;168.30;;;;;;;14.58;60.45;102827.81;5004214;28;102429;-52
2022/10/18 06:11:32;;;;;;;175.68;165.32;;;;;;;14.58;60.14;102825.06;4996223;28;103892;-52
2022/10/18 06:14:03;;;;;;;187.48;176.50;;;;;;;14.56;60.39;102814.34;4996834;28;102271;-52
2022/10/18 06:16:33;;;;;;;186.65;176.13;;;;;;;14.58;61.09;102820.41;5014561;28;102268;-52
2022/10/18 06:19:00;;;;;;;176.88;166.27;;;;;;;14.59;60.68;102822.06;5017336;28;102302;-52
2022/10/18 06:21:27;;;;;;;176.23;166.15;;;;;;;14.61;62.09;102819.91;5016404;28;103909;-52
2022/10/18 06:23:56;;;;;;;168.65;158.93;;;;;;;14.65;62.36;102820.25;5017430;28;102374;-52
2022/10/18 06:26:25;;;;;;;183.13;172.88;;;;;;;14.69;62.16;102817.84;5012274;28;102168;-52
2022/10/18 06:28:52;;;;;;;197.60;186.48;;;;;;;14.72;60.99;102817.38;5016055;28;102556;-52
2022/10/18 06:31:21;;;;;;;198.27;187.25;;;;;;;14.74;60.39;102820.66;5010642;28;104160;-52
2022/10/18 06:33:48;;;;;;;201.33;190.23;;;;;;;14.76;60.31;102818.53;4999646;28;103915;-52
2022/10/18 06:36:16;;;;;;;188.73;177.93;;;;;;;14.79;60.29;102820.78;5014938;27;102427;-52
2022/10/18 06:38:44;;;;;;;200.38;188.77;;;;;;;14.82;60.44;102820.25;4996211;28;102368;-52
2022/10/18 06:41:10;;;;;;;171.75;161.57;;;;;;;14.84;60.63;102824.41;4991083;28;104043;-52
2022/10/18 06:43:37;;;;;;;182.55;172.35;;;;;;;14.87;60.56;102828.56;4991289;28;102613;-52
2022/10/18 06:46:06;;;;;;;161.05;151.20;;;;;;;14.88;60.40;102831.06;4991406;28;102690;-52
2022/10/18 06:48:35;;;;;;;161.43;151.93;;;;;;;14.89;60.54;102820.91;4984335;28;102600;-52
2022/10/18 06:51:03;;;;;;;163.07;154.25;;;;;;;14.90;60.75;102817.13;4973341;28;104136;-52
2022/10/18 06:53:32;;;;;;;181.18;170.90;;;;;;;14.93;60.89;102819.38;4976230;28;102335;-52
2022/10/18 06:55:59;;;;;;;162.25;152.85;;;;;;;14.96;60.68;102816.09;4989017;28;102572;-52
2022/10/18 06:58:26;;;;;;;149.68;140.85;;;;;;;14.98;60.81;102808.47;5002129;28;102170;-53
2022/10/18 07:00:53;;;;;;;139.85;131.65;;;;;;;15.00;60.78;102810.94;4993309;28;103996;-52
2022/10/18 07:03:20;;;;;;;139.23;131.20;;;;;;;15.03;60.76;102808.53;4999568;28;102608;-52
2022/10/18 07:05:49;;;;;;;128.93;120.85;;;;;;;15.05;60.17;102798.16;5013716;28;102530;-52
2022/10/18 07:08:16;;;;;;;131.02;123.28;;;;;;;15.05;60.42;102798.16;4997423;28;102629;-53
2022/10/18 07:10:50;;;;;;;133.75;125.88;;;;;;;15.07;60.28;102801.50;4992821;28;103955;-52
2022/10/18 07:13:18;;;;;;;135.05;127.05;;;;;;;15.09;60.28;102796.56;4993225;28;102294;-52
2022/10/18 07:15:46;;;;;;;120.20;112.80;;;;;;;15.12;60.33;102798.00;4985998;28;102467;-52
2022/10/18 07:18:13;;;;;;;118.00;110.82;;;;;;;15.13;60.33;102794.16;4973849;28;102125;-52
2022/10/18 07:20:39;;;;;;;111.13;104.07;;;;;;;15.14;60.26;102784.84;4973126;28;103845;-52
2022/10/18 07:23:08;;;;;;;105.75;99.13;;;;;;;15.14;60.27;102782.91;4973438;28;102266;-52
2022/10/18 07:25:35;;;;;;;105.35;98.78;;;;;;;15.18;60.46;102790.66;4975365;28;102375;-52
2022/10/18 07:28:02;;;;;;;100.60;94.03;;;;;;;15.20;60.08;102783.84;4974743;28;102655;-52
2022/10/18 07:30:28;;;;;;;96.35;89.57;;;;;;;15.26;59.97;102787.50;4992367;28;104002;-52
2022/10/18 07:32:55;;;;;;;99.72;93.22;;;;;;;15.27;60.36;102789.16;4993134;28;102371;-52
2022/10/18 07:35:21;;;;;;;87.43;82.03;;;;;;;15.25;60.41;102780.34;4989736;28;102380;-52
2022/10/18 07:37:48;;;;;;;84.07;78.72;;;;;;;15.28;60.41;102780.66;4975553;28;102531;-52
2022/10/18 07:40:15;;;;;;;87.25;81.68;;;;;;;15.30;60.20;102777.69;4990821;28;103930;-52
2022/10/18 07:42:42;;;;;;;85.55;80.22;;;;;;;15.32;60.18;102770.00;4975849;28;102573;-52
2022/10/18 07:45:11;;;;;;;88.22;82.53;;;;;;;15.33;60.27;102769.78;4979817;28;102466;-53
2022/10/18 07:47:38;;;;;;;87.50;81.93;;;;;;;15.36;60.19;102771.16;4974372;28;102289;-52
2022/10/18 07:50:05;;;;;;;85.38;80.10;;;;;;;15.39;60.29;102770.66;4991460;28;103914;-52
2022/10/18 07:52:32;;;;;;;80.25;75.32;;;;;;;15.38;60.34;102769.84;4990253;28;102411;-52
2022/10/18 07:54:58;;;;;;;74.05;68.68;;;;;;;15.43;60.18;102771.81;4986107;28;102135;-52
2022/10/18 07:57:26;;;;;;;69.55;65.15;;;;;;;15.45;60.40;102766.09;4982310;28;102472;-53
2022/10/18 07:59:55;;;;;;;71.90;67.38;;;;;;;15.46;60.09;102771.31;4991392;28;105774;-52
2022/10/18 08:02:22;;;;;;;67.05;62.92;;;;;;;15.48;60.08;102771.88;4996296;28;102234;-56
2022/10/18 08:04:48;;;;;;;63.08;59.25;;;;;;;15.49;60.23;102762.56;4992659;28;102322;-53
2022/10/18 08:07:15;;;;;;;65.18;60.83;;;;;;;15.51;60.17;102757.66;4991463;28;102228;-52
2022/10/18 08:09:41;;;;;;;55.30;51.22;;;;;;;15.54;59.47;102754.41;4985144;28;104111;-52
2022/10/18 08:12:08;;;;;;;56.75;52.70;;;;;;;15.55;59.74;102758.00;5012495;28;102381;-53
2022/10/18 08:14:36;;;;;;;50.35;47.08;;;;;;;15.59;59.67;102757.22;5004388;28;104130;-52
2022/10/18 08:17:05;;;;;;;50.97;47.72;;;;;;;15.59;59.79;102759.13;5010909;28;102088;-52
2022/10/18 08:19:32;;;;;;;51.45;47.83;;;;;;;15.61;59.71;102757.78;5010968;28;104087;-52
2022/10/18 08:21:59;;;;;;;47.72;44.45;;;;;;;15.65;59.50;102757.25;5009208;28;102414;-52
2022/10/18 08:24:25;;;;;;;48.17;44.78;;;;;;;15.68;59.64;102751.28;5011995;28;103899;-52
2022/10/18 08:26:52;;;;;;;46.08;43.25;;;;;;;15.70;59.40;102746.41;5011858;28;102230;-53
2022/10/18 08:29:18;;;;;;;50.13;46.70;;;;;;;15.70;59.78;102755.44;5009266;28;103928;-52
2022/10/18 08:31:48;;;;;;;43.50;40.50;;;;;;;15.70;59.60;102738.97;5016196;28;102336;-53
2022/10/18 08:34:15;;;;;;;48.28;45.13;;;;;;;15.70;59.77;102743.66;5015447;28;102560;-53
2022/10/18 08:36:42;;;;;;;41.85;39.10;;;;;;;15.75;59.15;102740.94;4999496;28;102273;-52
2022/10/18 08:39:08;;;;;;;40.58;37.97;;;;;;;15.76;58.98;102743.47;5016081;28;104045;-52
2022/10/18 08:42:08;;;;;;;37.90;35.42;;;;;;;15.74;59.49;102742.03;5015810;28;102808;-52
2022/10/18 08:44:43;;;;;;;49.40;46.30;;;;;;;15.78;58.99;102740.44;5006113;28;102565;-52
2022/10/18 08:47:15;;;;;;;41.28;38.50;;;;;;;15.78;59.47;102730.28;5017627;28;102062;-53
2022/10/18 08:49:49;;;;;;;43.63;40.67;;;;;;;15.79;59.14;102723.69;5010411;28;103891;-53
2022/10/18 08:52:27;;;;;;;37.05;34.53;;;;;;;15.82;59.25;102731.41;5015942;28;102332;-52
2022/10/18 08:55:00;;;;;;;40.30;37.63;;;;;;;15.84;59.02;102720.19;5015841;28;102578;-52
2022/10/18 08:57:27;;;;;;;37.13;34.83;;;;;;;15.84;59.04;102725.69;5015156;28;102633;-52
2022/10/18 08:59:54;;;;;;;33.53;31.08;;;;;;;15.86;58.58;102729.00;5008188;28;103945;-53
2022/10/18 09:02:35;;;;;;;28.92;27.00;;;;;;;15.85;58.55;102725.41;4995951;28;101992;-52
2022/10/18 09:05:16;;;;;;;35.42;33.17;;;;;;;15.85;58.92;102730.09;4995406;28;103554;-53
2022/10/18 09:07:58;;;;;;;34.20;31.85;;;;;;;15.85;58.66;102719.09;4996217;28;102612;-53
2022/10/18 09:10:38;;;;;;;33.97;31.95;;;;;;;15.86;58.61;102724.31;4996841;28;104050;-52
2022/10/18 09:13:24;;;;;;;32.80;30.73;;;;;;;15.87;58.22;102722.44;5005876;28;102595;-52
2022/10/18 09:15:56;;;;;;;39.83;36.90;;;;;;;15.89;58.36;102717.50;4996079;28;102438;-53
2022/10/18 09:18:42;;;;;;;33.03;31.00;;;;;;;15.88;58.58;102713.09;4997436;28;102482;-52
2022/10/18 09:21:17;;;;;;;31.00;29.15;;;;;;;15.89;58.20;102708.44;5015312;28;103727;-53
2022/10/18 09:23:47;;;;;;;31.63;29.70;;;;;;;15.88;58.11;102707.59;5015424;28;102155;-52
2022/10/18 09:26:16;;;;;;;26.80;24.67;;;;;;;15.87;58.40;102700.47;5014691;28;102491;-53
2022/10/18 09:28:57;;;;;;;25.00;23.50;;;;;;;15.90;58.56;102699.94;5007275;28;102318;-53
2022/10/18 09:31:32;;;;;;;30.20;28.27;;;;;;;15.90;58.23;102694.44;4994254;28;103409;-53
2022/10/18 09:34:04;;;;;;;25.63;23.98;;;;;;;15.89;58.81;102687.28;4998969;28;103176;-52
2022/10/18 09:36:36;;;;;;;27.95;26.05;;;;;;;15.92;58.62;102688.69;5002330;28;102531;-53
2022/10/18 09:39:08;;;;;;;27.20;25.35;;;;;;;15.92;58.49;102685.97;5015461;28;102468;-53
2022/10/18 09:41:43;;;;;;;27.33;25.20;;;;;;;15.90;58.48;102683.44;5002169;28;103937;-53
2022/10/18 09:44:17;;;;;;;25.08;23.52;;;;;;;15.90;58.81;102677.97;4995049;28;102741;-52
2022/10/18 09:46:50;;;;;;;26.55;24.67;;;;;;;15.92;58.69;102675.78;4978125;28;101987;-52
2022/10/18 09:49:23;;;;;;;24.15;22.75;;;;;;;15.91;58.52;102679.63;4996033;28;102761;-52
2022/10/18 09:51:52;;;;;;;25.33;23.50;;;;;;;15.92;58.72;102675.78;4983575;28;103942;-52
2022/10/18 09:54:24;;;;;;;27.23;25.70;;;;;;;15.92;58.86;102670.31;4995896;28;102587;-51
2022/10/18 09:56:56;;;;;;;23.75;22.10;;;;;;;15.91;58.92;102665.91;5012736;28;101920;-52
2022/10/18 09:59:35;;;;;;;26.20;24.45;;;;;;;15.90;58.71;102661.47;5015788;28;102499;-52
2022/10/18 10:02:02;;;;;;;24.73;22.92;;;;;;;15.92;58.63;102655.75;5013473;28;103940;-53
2022/10/18 10:04:30;;;;;;;25.98;24.35;;;;;;;15.90;58.78;102653.25;5014884;28;102320;-52
2022/10/18 10:06:59;;;;;;;26.50;24.70;;;;;;;15.89;58.57;102648.03;5009198;28;102242;-52
2022/10/18 10:09:28;;;;;;;25.80;24.05;;;;;;;15.89;59.11;102643.38;5015200;28;102143;-52
2022/10/18 10:11:55;;;;;;;24.95;23.20;;;;;;;15.88;58.87;102641.72;5012225;28;104025;-52
2022/10/18 10:14:25;;;;;;;23.00;21.45;;;;;;;15.89;58.65;102626.06;5013297;28;102281;-52
2022/10/18 10:16:53;;;;;;;23.30;21.65;;;;;;;15.88;59.22;102630.72;5011738;28;102427;-52
2022/10/18 10:19:23;;;;;;;22.80;21.30;;;;;;;15.86;58.95;102630.16;5014507;28;103002;-52
2022/10/18 10:21:57;;;;;;;22.05;20.63;;;;;;;15.85;59.08;102628.50;5013977;28;103942;-52
2022/10/18 10:24:32;;;;;;;25.92;24.25;;;;;;;15.86;59.28;102613.69;5012200;28;102358;-53
2022/10/18 10:27:05;;;;;;;29.35;27.42;;;;;;;15.85;59.51;102615.59;5013504;28;102943;-53
2022/10/18 10:29:50;;;;;;;24.77;23.17;;;;;;;15.85;59.39;102614.78;5007212;28;102298;-52
2022/10/18 10:32:18;;;;;;;27.73;25.83;;;;;;;15.85;59.38;102603.78;5012219;28;108144;-53
2022/10/18 10:34:45;;;;;;;24.50;22.90;;;;;;;15.86;59.21;102613.69;5013400;28;102515;-53
2022/10/18 10:37:26;;;;;;;25.92;24.20;;;;;;;15.84;59.52;102604.88;5013888;28;102521;-52
2022/10/18 10:40:17;;;;;;;27.70;26.00;;;;;;;15.83;59.75;102600.47;5010040;28;102538;-54
2022/10/18 10:43:02;;;;;;;30.40;28.45;;;;;;;15.82;59.38;102591.41;4993984;28;103496;-53
2022/10/18 10:45:32;;;;;;;28.63;26.83;;;;;;;15.80;59.78;102581.78;4975769;28;102902;-53
2022/10/18 10:48:06;;;;;;;26.83;25.27;;;;;;;15.81;59.73;102586.19;4987546;28;102763;-53
2022/10/18 10:50:49;;;;;;;28.80;26.83;;;;;;;15.80;59.93;102584.53;4987000;28;102628;-52
2022/10/18 10:53:42;;;;;;;30.08;27.90;;;;;;;15.80;60.17;102574.38;4981897;28;103863;-52
2022/10/18 10:56:21;;;;;;;31.23;29.50;;;;;;;15.80;60.11;102573.56;4994272;28;102476;-53
2022/10/18 10:58:54;;;;;;;31.60;29.52;;;;;;;15.81;60.06;102575.22;4992967;28;102197;-53
2022/10/18 11:01:27;;;;;;;26.20;24.45;;;;;;;15.82;59.82;102565.88;4994137;28;102203;-52
2022/10/18 11:03:56;;;;;;;30.52;28.38;;;;;;;15.82;60.26;102561.22;4981258;28;103920;-53
2022/10/18 11:06:45;;;;;;;25.42;23.50;;;;;;;15.84;59.87;102555.47;4991085;28;102495;-53